Willisville, Illinois
Current Conditions -  °F | °C
As of 5:15 PM on Wednesday 26 Nov 2014 (Local Time) from KSAR Reporting Station
Light Snow Light Snow  
Wind Chill: 32°   Ceiling: 300
Heat Index: 32°   Visibility: 1.7mi
Dew Point: 31°   Wind: 0mph
Humidity: 99%   Direction: NA
Pressure: 30.03"   Gusts: NA
Location:  37.98°N, 89.59°W
Report Text: KSAR 262315Z AUTO 00000KT 1 3/4SM -SN OVC003 00/00 A3003 RMK AO2 T10021003
Loading
Personal Weather Stations






























Interactive Weather Map New forecast layout! Learn more

10-Day Weather Forecast

Advertisements
Track Severe Weather on mobile